createdAt,value
2023-05-11T00:01:14.667Z,10.14
2023-05-11T00:06:17.414Z,10.08
2023-05-11T00:11:20.168Z,9.95
2023-05-11T00:16:22.761Z,10.04
2023-05-11T00:21:25.308Z,9.68
2023-05-11T00:26:27.809Z,9.96
2023-05-11T00:31:30.655Z,9.90
2023-05-11T00:36:33.710Z,9.76
2023-05-11T00:41:36.529Z,9.43
2023-05-11T00:46:39.196Z,9.90
2023-05-11T00:51:41.646Z,9.85
2023-05-11T00:56:44.161Z,9.68
2023-05-11T01:01:46.832Z,9.64
2023-05-11T01:07:04.342Z,9.80
2023-05-11T01:12:09.039Z,9.73
2023-05-11T01:17:19.531Z,9.62
2023-05-11T01:22:32.128Z,9.72
2023-05-11T01:27:55.753Z,8.66
2023-05-11T01:33:00.624Z,9.05
2023-05-11T01:38:04.639Z,9.16
2023-05-11T01:43:10.626Z,9.49
2023-05-11T01:48:20.728Z,9.28
2023-05-11T01:53:23.791Z,9.37
2023-05-11T01:58:27.771Z,9.43
2023-05-11T02:03:32.067Z,8.88
2023-05-11T02:08:35.028Z,9.21
2023-05-11T02:13:39.735Z,9.40
2023-05-11T02:18:43.039Z,9.09
2023-05-11T02:23:47.258Z,9.25
2023-05-11T02:28:50.567Z,9.22
2023-05-11T02:33:54.282Z,9.37
2023-05-11T02:39:03.744Z,9.10
2023-05-11T02:44:08.260Z,8.66
2023-05-11T02:49:12.051Z,9.21
2023-05-11T02:54:15.657Z,9.19
2023-05-11T02:59:23.652Z,8.86
2023-05-11T03:04:26.271Z,9.18
2023-05-11T03:09:29.226Z,9.32
2023-05-11T03:14:33.662Z,9.51
2023-05-11T03:19:37.450Z,8.98
2023-05-11T03:24:40.588Z,9.38
2023-05-11T03:29:44.949Z,9.23
2023-05-11T03:34:47.883Z,9.47
2023-05-11T03:39:56.831Z,9.75
2023-05-11T03:45:01.442Z,9.57
2023-05-11T03:50:08.103Z,9.31
2023-05-11T03:55:11.145Z,9.53
2023-05-11T04:00:14.188Z,9.76
2023-05-11T04:05:20.644Z,10.01
2023-05-11T04:10:23.921Z,10.06
2023-05-11T04:15:26.263Z,10.31
2023-05-11T04:20:28.715Z,10.48
2023-05-11T04:25:31.048Z,10.57
2023-05-11T04:30:33.545Z,10.54
2023-05-11T04:35:40.024Z,10.78
2023-05-11T04:40:43.715Z,10.88
2023-05-11T04:45:52.780Z,10.19
2023-05-11T04:50:59.826Z,10.92
2023-05-11T04:56:06.890Z,10.91
2023-05-11T05:01:09.632Z,11.29
2023-05-11T05:06:12.242Z,10.87
2023-05-11T05:11:14.905Z,11.47
2023-05-11T05:16:17.533Z,11.25
2023-05-11T05:21:20.158Z,11.54
2023-05-11T05:26:24.312Z,11.39
2023-05-11T05:31:27.302Z,11.87
2023-05-11T05:36:30.656Z,11.90
2023-05-11T05:41:33.115Z,11.92
2023-05-11T05:46:36.903Z,12.40
2023-05-11T05:51:39.854Z,12.49
2023-05-11T05:56:43.182Z,12.59
2023-05-11T06:01:48.381Z,13.12
2023-05-11T06:06:51.626Z,13.10
2023-05-11T06:11:54.530Z,13.73
2023-05-11T06:16:59.149Z,13.52
2023-05-11T06:22:06.727Z,14.03
2023-05-11T06:27:11.666Z,14.01
2023-05-11T06:32:15.426Z,14.23
2023-05-11T06:37:21.435Z,14.01
2023-05-11T06:42:26.119Z,14.46
2023-05-11T06:47:39.828Z,14.81
2023-05-11T06:52:42.390Z,14.62
2023-05-11T06:57:46.149Z,15.32
2023-05-11T07:02:48.865Z,14.76
2023-05-11T07:07:51.668Z,15.71
2023-05-11T07:12:54.283Z,15.98
2023-05-11T07:17:56.926Z,16.15
2023-05-11T07:22:59.736Z,16.29
2023-05-11T07:28:02.265Z,16.53
2023-05-11T07:33:04.847Z,16.00
2023-05-11T07:38:12.204Z,16.34
2023-05-11T07:43:14.747Z,16.78
2023-05-11T07:48:18.475Z,17.06
2023-05-11T07:53:21.050Z,17.11
2023-05-11T07:58:23.701Z,17.04
2023-05-11T08:03:26.254Z,16.75
2023-05-11T08:08:28.812Z,17.53
2023-05-11T08:13:32.080Z,17.11
2023-05-11T08:18:34.691Z,17.21
2023-05-11T08:23:37.629Z,16.93
2023-05-11T08:28:40.185Z,17.50
2023-05-11T08:33:42.795Z,17.46
2023-05-11T08:38:45.352Z,17.41
2023-05-11T08:43:49.228Z,17.15
2023-05-11T08:48:51.695Z,17.22
2023-05-11T08:53:54.995Z,17.47
2023-05-11T08:58:58.305Z,17.53
2023-05-11T09:04:01.042Z,17.88
2023-05-11T09:09:04.097Z,18.16
2023-05-11T09:14:06.865Z,18.16
2023-05-11T09:19:15.731Z,17.55
2023-05-11T09:24:20.856Z,17.32
2023-05-11T09:29:23.664Z,17.98
2023-05-11T09:34:27.108Z,17.59
2023-05-11T09:39:42.201Z,18.05
2023-05-11T09:44:58.075Z,18.71
2023-05-11T09:50:00.517Z,18.30
2023-05-11T09:55:11.136Z,18.00
2023-05-11T10:00:16.968Z,17.72
2023-05-11T10:05:21.950Z,17.45
2023-05-11T10:10:24.888Z,16.59
2023-05-11T10:15:31.037Z,16.56
2023-05-11T10:20:33.678Z,16.42
2023-05-11T10:25:38.105Z,15.60
2023-05-11T10:30:41.520Z,16.30
2023-05-11T10:35:46.801Z,15.81
2023-05-11T10:40:49.924Z,16.68
2023-05-11T10:46:17.317Z,17.13
2023-05-11T10:51:38.451Z,17.04
2023-05-11T10:56:53.711Z,17.62
2023-05-11T11:01:59.436Z,17.41
2023-05-11T11:07:09.247Z,18.05
2023-05-11T11:12:12.646Z,18.20
2023-05-11T11:17:15.244Z,18.39
2023-05-11T11:22:36.603Z,18.38
2023-05-11T11:27:42.107Z,18.38
2023-05-11T11:32:46.317Z,18.09
2023-05-11T11:38:07.315Z,17.40
2023-05-11T11:43:19.585Z,16.83
2023-05-11T11:48:24.418Z,17.38
2023-05-11T11:53:41.530Z,17.59
2023-05-11T11:58:44.803Z,17.43
2023-05-11T12:03:52.811Z,16.77
2023-05-11T12:08:55.489Z,16.80
2023-05-11T12:13:58.684Z,16.30
2023-05-11T12:19:02.293Z,16.27
2023-05-11T12:24:06.095Z,16.22
2023-05-11T12:29:09.509Z,16.33
2023-05-11T12:34:19.198Z,16.45
2023-05-11T12:39:26.734Z,16.37
2023-05-11T12:44:29.765Z,16.34
2023-05-11T12:49:32.755Z,16.35
2023-05-11T12:54:39.679Z,16.32
2023-05-11T12:59:42.312Z,16.44
2023-05-11T13:04:47.209Z,16.84
2023-05-11T13:10:00.364Z,16.43
2023-05-11T13:15:06.443Z,16.88
2023-05-11T13:20:22.616Z,16.69
2023-05-11T13:25:25.355Z,16.56
2023-05-11T13:30:28.667Z,16.82
2023-05-11T13:35:31.445Z,16.79
2023-05-11T13:40:35.339Z,16.85
2023-05-11T13:45:40.537Z,16.91
2023-05-11T13:50:43.284Z,16.99
2023-05-11T13:55:48.456Z,16.88
2023-05-11T14:01:06.710Z,17.19
2023-05-11T14:06:10.640Z,16.91
2023-05-11T14:11:14.657Z,16.44
2023-05-11T14:16:17.989Z,16.44
2023-05-11T14:21:21.156Z,16.77
2023-05-11T14:26:23.775Z,16.25
2023-05-11T14:31:26.586Z,16.43
2023-05-11T14:36:29.111Z,16.71
2023-05-11T14:41:31.602Z,16.57
2023-05-11T14:46:35.760Z,16.61
2023-05-11T14:51:39.675Z,16.58
2023-05-11T14:56:42.250Z,16.53
2023-05-11T15:01:44.934Z,16.27
2023-05-11T15:06:47.448Z,16.53
2023-05-11T15:11:50.019Z,15.93
2023-05-11T15:16:55.098Z,16.37
2023-05-11T15:21:57.840Z,16.12
2023-05-11T15:27:00.630Z,16.25
2023-05-11T15:32:03.211Z,16.23
2023-05-11T15:37:06.407Z,16.20
2023-05-11T15:42:08.830Z,16.16
2023-05-11T15:47:12.396Z,16.15
2023-05-11T15:52:14.845Z,16.15
2023-05-11T15:57:17.333Z,16.08
2023-05-11T16:02:19.917Z,15.83
2023-05-11T16:07:22.619Z,15.40
2023-05-11T16:12:25.192Z,15.74
2023-05-11T16:17:27.877Z,15.77
2023-05-11T16:22:31.562Z,15.95
2023-05-11T16:27:34.390Z,15.64
2023-05-11T16:32:37.191Z,15.20
2023-05-11T16:37:40.804Z,14.09
2023-05-11T16:42:43.637Z,13.61
2023-05-11T16:47:47.389Z,12.97
2023-05-11T16:52:50.024Z,15.13
2023-05-11T16:57:55.722Z,15.50
2023-05-11T17:02:58.835Z,13.67
2023-05-11T17:08:01.526Z,14.68
2023-05-11T17:13:04.661Z,13.33
2023-05-11T17:18:07.327Z,14.83
2023-05-11T17:23:09.888Z,13.85
2023-05-11T17:28:12.556Z,14.40
2023-05-11T17:33:15.892Z,13.85
2023-05-11T17:38:18.720Z,14.25
2023-05-11T17:43:21.191Z,14.24
2023-05-11T17:48:24.556Z,14.45
2023-05-11T17:53:27.743Z,14.37
2023-05-11T17:58:30.412Z,14.32
2023-05-11T18:03:33.117Z,13.63
2023-05-11T18:08:37.033Z,14.10
2023-05-11T18:13:40.008Z,13.47
2023-05-11T18:18:43.059Z,13.47
2023-05-11T18:23:46.612Z,13.25
2023-05-11T18:28:49.463Z,13.33
2023-05-11T18:33:52.116Z,13.30
2023-05-11T18:38:54.556Z,13.48
2023-05-11T18:43:57.283Z,13.39
2023-05-11T18:49:02.683Z,13.07
2023-05-11T18:54:05.523Z,13.20
2023-05-11T18:59:08.385Z,13.01
2023-05-11T19:04:10.913Z,12.66
2023-05-11T19:09:15.486Z,12.81
2023-05-11T19:14:21.338Z,12.70
2023-05-11T19:19:26.119Z,12.73
2023-05-11T19:24:30.139Z,12.34
2023-05-11T19:35:14.438Z,12.43
2023-05-11T19:45:33.122Z,12.16
2023-05-11T19:50:36.776Z,11.65
2023-05-11T19:55:41.033Z,11.89
2023-05-11T20:00:43.725Z,11.83
2023-05-11T20:05:47.216Z,11.78
2023-05-11T20:10:49.989Z,11.98
2023-05-11T20:15:52.527Z,11.67
2023-05-11T20:20:55.168Z,11.55
2023-05-11T20:25:57.664Z,11.83
2023-05-11T20:31:00.145Z,11.63
2023-05-11T20:36:02.819Z,11.55
2023-05-11T20:41:05.703Z,11.53
2023-05-11T20:46:08.110Z,11.43
2023-05-11T20:51:10.723Z,11.19
2023-05-11T20:56:13.880Z,10.28
2023-05-11T21:01:16.360Z,10.36
2023-05-11T21:06:19.165Z,11.30
2023-05-11T21:11:22.436Z,11.09
2023-05-11T21:16:25.002Z,11.04
2023-05-11T21:21:27.842Z,10.74
2023-05-11T21:26:30.783Z,11.03
2023-05-11T21:31:33.490Z,11.00
2023-05-11T21:36:36.484Z,10.82
2023-05-11T21:41:39.402Z,10.76
2023-05-11T21:46:42.109Z,10.91
2023-05-11T21:51:44.624Z,10.20
2023-05-11T21:56:47.079Z,10.16
2023-05-11T22:01:50.016Z,10.48
2023-05-11T22:06:52.741Z,10.72
2023-05-11T22:11:55.322Z,10.40
2023-05-11T22:16:57.900Z,9.87
2023-05-11T22:22:00.476Z,10.51
2023-05-11T22:27:03.136Z,10.60
2023-05-11T22:32:06.071Z,10.56
2023-05-11T22:37:08.801Z,10.08
2023-05-11T22:42:11.289Z,9.63
2023-05-11T22:47:13.999Z,10.34
2023-05-11T22:52:16.746Z,10.28
2023-05-11T22:57:19.284Z,10.37
2023-05-11T23:02:21.889Z,9.73
2023-05-11T23:07:24.605Z,9.82
2023-05-11T23:12:27.046Z,9.90
2023-05-11T23:17:29.688Z,9.21
2023-05-11T23:22:33.123Z,9.70
2023-05-11T23:27:35.636Z,9.63
2023-05-11T23:32:38.290Z,9.64
2023-05-11T23:37:41.070Z,9.20
2023-05-11T23:42:44.060Z,9.62
2023-05-11T23:47:46.791Z,9.15
2023-05-11T23:52:50.067Z,9.35
2023-05-11T23:57:52.568Z,9.18
